Mendota, IL

11:21 PM CST on February 12, 2016 (GMT -0600)
Welland and Angling Roads | | Change Station
CLOSE
Current Station
Personal Weather Station
Location: Earlville, IL
Elevation: 833 ft
Nearby Weather Stations

Elev 833 ft 41.63 °N, 89.02 °W | Updated 1 second ago

Clear
Clear
7.7 °F
Feels Like -4 °F
N
6.9
Wind Variable Wind from North
Gusts 11.4 mph

Today
High -- | Low -- °F
--% Chance of Precip.
Yesterday
High -- | Low -- °F
Precip. -- in
Pressure 30.50 in
Visibility 10.0 miles
Clouds Clear
Windchill -4 °F
Dew Point -9 °F
Humidity 45%
Rainfall 0.00 in
Snow Depth Not available.
6:56 AM 5:25 PM
Waxing Crescent, 27% visible
METAR KVYS 130455Z AUTO 35006G16KT 10SM CLR M11/M19 A3050 RMK AO2 T11101190
Pressure 30.50 in
Visibility 10.0 miles
Clouds Clear
Windchill -4 °F
Dew Point -9 °F
Humidity 45%
Rainfall 0.00 in
Snow Depth Not available.
6:56 AM 5:25 PM
Waxing Crescent, 27% visible
METAR KVYS 130455Z AUTO 35006G16KT 10SM CLR M11/M19 A3050 RMK AO2 T11101190

10-Day Weather Forecast

Almanac

Astronomy

Feb. 12, 2016 Rise Set
Actual Time
Civil Twilight
Nautical Twilight
Astronomical Twilight
Moon
Length of Visible Light
Length of Day
Tomorrow will be .
, % of the Moon is Illuminated

Today's Extremes

State Highs State Lows

Community

WunderPhotos

Upload Photos

1,892,507 photos uploaded!

WunderBlog® & News

Nearby

Air Quality

  Air Quality AQ Index Pollutant
Not available.

Snow Depth

Station Depth Elevation

Earthquake Activity

City Distance Mag. Time & Date
Minimum magnitude displayed is 2.5.

Coastal Water Temperatures

Place Temperature

Stations

Nearby Weather Stations

Station Location Temp. Windchill Dew Point Humidity Wind Precip. Elev Updated Type
                   

Watches & Warnings

There are currently no watches in effect.